createdAt,value
2022-11-26T00:00:29.491Z,5.53
2022-11-26T00:02:57.559Z,5.51
2022-11-26T00:05:26.084Z,5.49
2022-11-26T00:07:56.906Z,5.47
2022-11-26T00:10:27.561Z,5.48
2022-11-26T00:12:57.721Z,5.31
2022-11-26T00:15:27.290Z,5.22
2022-11-26T00:17:55.620Z,5.05
2022-11-26T00:20:26.538Z,4.97
2022-11-26T00:22:56.420Z,4.90
2022-11-26T00:25:26.657Z,4.88
2022-11-26T00:27:58.809Z,4.90
2022-11-26T00:30:28.959Z,5.00
2022-11-26T00:32:57.208Z,4.97
2022-11-26T00:35:25.472Z,5.04
2022-11-26T00:37:56.256Z,5.07
2022-11-26T00:40:26.207Z,5.16
2022-11-26T00:43:00.159Z,5.19
2022-11-26T00:45:32.182Z,5.21
2022-11-26T00:48:01.842Z,5.32
2022-11-26T00:50:34.989Z,5.39
2022-11-26T00:53:03.004Z,5.44
2022-11-26T00:55:34.433Z,5.48
2022-11-26T00:58:02.915Z,5.48
2022-11-26T01:00:34.745Z,5.47
2022-11-26T01:03:03.604Z,5.42
2022-11-26T01:05:33.593Z,5.37
2022-11-26T01:08:07.749Z,5.32
2022-11-26T01:10:35.496Z,5.35
2022-11-26T01:13:03.541Z,5.30
2022-11-26T01:15:32.579Z,5.22
2022-11-26T01:18:00.389Z,5.20
2022-11-26T01:20:30.881Z,5.19
2022-11-26T01:22:59.915Z,5.21
2022-11-26T01:25:28.493Z,5.22
2022-11-26T01:27:56.479Z,5.19
2022-11-26T01:30:31.032Z,5.19
2022-11-26T01:33:01.134Z,5.17
2022-11-26T01:35:30.221Z,5.12
2022-11-26T01:37:57.893Z,5.08
2022-11-26T01:40:41.830Z,5.09
2022-11-26T01:43:15.998Z,5.12
2022-11-26T01:45:44.138Z,5.12
2022-11-26T01:48:24.116Z,5.06
2022-11-26T01:50:57.117Z,5.07
2022-11-26T01:53:41.232Z,5.04
2022-11-26T01:56:19.018Z,5.03
2022-11-26T01:58:50.732Z,5.05
2022-11-26T02:01:19.914Z,4.95
2022-11-26T02:03:57.889Z,4.90
2022-11-26T02:06:31.038Z,4.82
2022-11-26T02:09:01.480Z,4.79
2022-11-26T02:11:29.170Z,4.80
2022-11-26T02:14:01.372Z,4.79
2022-11-26T02:16:43.522Z,4.71
2022-11-26T02:19:37.797Z,4.67
2022-11-26T02:22:21.569Z,4.63
2022-11-26T02:24:51.246Z,4.55
2022-11-26T02:27:54.867Z,4.52
2022-11-26T02:30:24.070Z,4.49
2022-11-26T02:32:58.811Z,4.49
2022-11-26T02:35:33.943Z,4.56
2022-11-26T02:38:06.165Z,4.61
2022-11-26T02:40:34.101Z,4.66
2022-11-26T02:43:03.149Z,4.77
2022-11-26T02:45:36.695Z,4.81
2022-11-26T02:48:07.927Z,4.82
2022-11-26T02:50:40.751Z,4.80
2022-11-26T02:53:10.472Z,4.81
2022-11-26T02:55:42.825Z,4.91
2022-11-26T02:58:10.613Z,4.87
2022-11-26T03:00:43.582Z,4.98
2022-11-26T03:03:22.854Z,4.95
2022-11-26T03:05:55.301Z,5.02
2022-11-26T03:08:23.995Z,5.07
2022-11-26T03:10:51.670Z,5.02
2022-11-26T03:13:19.360Z,5.13
2022-11-26T03:15:48.466Z,5.15
2022-11-26T03:18:16.257Z,5.25
2022-11-26T03:20:44.022Z,5.34
2022-11-26T03:23:11.870Z,5.39
2022-11-26T03:25:39.793Z,5.55
2022-11-26T03:28:07.969Z,5.54
2022-11-26T03:30:35.853Z,5.51
2022-11-26T03:33:05.153Z,5.47
2022-11-26T03:35:32.884Z,5.38
2022-11-26T03:38:00.541Z,5.33
2022-11-26T03:40:28.252Z,5.28
2022-11-26T03:42:55.938Z,5.22
2022-11-26T03:45:23.739Z,5.12
2022-11-26T03:47:51.464Z,5.03
2022-11-26T03:50:20.591Z,4.95
2022-11-26T03:52:48.248Z,4.88
2022-11-26T03:55:16.488Z,4.82
2022-11-26T03:57:44.204Z,4.67
2022-11-26T04:00:12.966Z,4.59
2022-11-26T04:02:40.611Z,4.31
2022-11-26T04:05:09.000Z,4.08
2022-11-26T04:07:38.340Z,3.97
2022-11-26T04:10:07.116Z,4.03
2022-11-26T04:12:34.993Z,3.89
2022-11-26T04:15:02.710Z,3.92
2022-11-26T04:17:30.324Z,3.90
2022-11-26T04:19:58.021Z,3.78
2022-11-26T04:22:25.735Z,3.69
2022-11-26T04:24:54.793Z,3.61
2022-11-26T04:27:22.501Z,3.65
2022-11-26T04:29:50.400Z,3.67
2022-11-26T04:32:18.146Z,3.54
2022-11-26T04:34:45.761Z,3.53
2022-11-26T04:37:13.433Z,3.64
2022-11-26T04:39:41.174Z,3.66
2022-11-26T04:42:10.288Z,3.65
2022-11-26T04:44:38.357Z,3.74
2022-11-26T04:47:06.420Z,3.89
2022-11-26T04:49:34.187Z,3.95
2022-11-26T04:52:01.907Z,3.99
2022-11-26T04:54:29.547Z,3.51
2022-11-26T04:56:57.288Z,3.32
2022-11-26T04:59:26.971Z,3.05
2022-11-26T05:01:54.631Z,3.00
2022-11-26T05:04:22.388Z,3.06
2022-11-26T05:06:50.091Z,3.09
2022-11-26T05:09:17.785Z,3.11
2022-11-26T05:11:45.413Z,3.18
2022-11-26T05:14:14.103Z,3.25
2022-11-26T05:16:43.294Z,3.39
2022-11-26T05:19:11.042Z,3.28
2022-11-26T05:21:38.768Z,3.25
2022-11-26T05:24:07.000Z,3.16
2022-11-26T05:26:34.937Z,3.06
2022-11-26T05:29:02.922Z,3.00
2022-11-26T05:31:31.183Z,2.93
2022-11-26T05:34:00.243Z,3.03
2022-11-26T05:36:27.965Z,3.21
2022-11-26T05:38:55.642Z,3.33
2022-11-26T05:41:23.511Z,3.36
2022-11-26T05:43:51.212Z,3.40
2022-11-26T05:46:19.909Z,3.47
2022-11-26T05:48:47.671Z,3.52
2022-11-26T05:51:16.774Z,3.52
2022-11-26T05:53:44.709Z,3.53
2022-11-26T05:56:12.505Z,3.52
2022-11-26T05:58:40.165Z,3.53
2022-11-26T06:01:09.497Z,3.56
2022-11-26T06:03:37.994Z,3.56
2022-11-26T06:06:06.843Z,3.58
2022-11-26T06:08:36.294Z,3.60
2022-11-26T06:11:04.022Z,3.61
2022-11-26T06:13:31.869Z,3.43
2022-11-26T06:15:59.638Z,3.60
2022-11-26T06:18:27.511Z,3.62
2022-11-26T06:20:55.153Z,3.65
2022-11-26T06:23:23.400Z,3.65
2022-11-26T06:25:52.560Z,3.64
2022-11-26T06:28:20.478Z,3.61
2022-11-26T06:30:48.193Z,3.59
2022-11-26T06:33:15.902Z,3.54
2022-11-26T06:35:43.856Z,3.52
2022-11-26T06:38:12.260Z,3.27
2022-11-26T06:40:39.937Z,3.22
2022-11-26T06:43:09.261Z,3.18
2022-11-26T06:45:38.016Z,3.25
2022-11-26T06:48:05.932Z,3.23
2022-11-26T06:50:34.118Z,3.15
2022-11-26T06:53:02.036Z,3.17
2022-11-26T06:55:30.015Z,3.25
2022-11-26T06:57:57.797Z,3.32
2022-11-26T07:00:26.920Z,3.33
2022-11-26T07:02:54.663Z,3.41
2022-11-26T07:05:22.555Z,3.45
2022-11-26T07:07:50.461Z,3.47
2022-11-26T07:10:18.366Z,3.50
2022-11-26T07:12:46.057Z,3.57
2022-11-26T07:15:13.752Z,3.58
2022-11-26T07:17:42.869Z,3.64
2022-11-26T07:20:11.180Z,3.36
2022-11-26T07:22:39.119Z,3.19
2022-11-26T07:25:12.342Z,3.00
2022-11-26T07:27:40.915Z,2.96
2022-11-26T07:30:10.072Z,3.02
2022-11-26T07:32:37.869Z,3.05
2022-11-26T07:35:07.793Z,3.10
2022-11-26T07:37:35.577Z,3.11
2022-11-26T07:40:05.068Z,3.22
2022-11-26T07:42:33.666Z,3.29
2022-11-26T07:45:01.846Z,3.44
2022-11-26T07:47:30.775Z,3.61
2022-11-26T07:49:58.740Z,3.69
2022-11-26T07:52:28.151Z,3.69
2022-11-26T07:54:55.876Z,3.71
2022-11-26T07:57:23.619Z,3.75
2022-11-26T07:59:51.427Z,3.83
2022-11-26T08:02:19.442Z,3.85
2022-11-26T08:04:47.143Z,3.93
2022-11-26T08:07:22.088Z,4.00
2022-11-26T08:09:55.059Z,4.09
2022-11-26T08:12:22.724Z,4.22
2022-11-26T08:14:50.337Z,4.39
2022-11-26T08:17:18.247Z,4.48
2022-11-26T08:19:45.930Z,4.59
2022-11-26T08:22:13.855Z,4.58
2022-11-26T08:24:41.796Z,4.56
2022-11-26T08:27:10.949Z,4.64
2022-11-26T08:29:38.777Z,4.75
2022-11-26T08:32:07.182Z,4.72
2022-11-26T08:34:35.240Z,4.84
2022-11-26T08:37:03.294Z,4.90
2022-11-26T08:39:31.085Z,5.10
2022-11-26T08:41:59.144Z,5.14
2022-11-26T08:44:28.226Z,5.35
2022-11-26T08:46:56.488Z,5.48
2022-11-26T08:49:24.198Z,5.57
2022-11-26T08:51:51.935Z,5.71
2022-11-26T08:54:20.029Z,5.74
2022-11-26T08:56:47.959Z,5.65
2022-11-26T08:59:16.263Z,5.64
2022-11-26T09:01:45.416Z,5.73
2022-11-26T09:04:13.265Z,5.81
2022-11-26T09:06:41.506Z,5.81
2022-11-26T09:09:17.614Z,5.80
2022-11-26T09:11:48.479Z,5.80
2022-11-26T09:14:18.222Z,5.70
2022-11-26T09:16:47.634Z,5.70
2022-11-26T09:19:16.687Z,5.68
2022-11-26T09:21:44.779Z,5.70
2022-11-26T09:24:12.545Z,5.77
2022-11-26T09:26:41.069Z,5.82
2022-11-26T09:29:09.247Z,5.92
2022-11-26T09:31:45.887Z,5.98
2022-11-26T09:34:24.473Z,6.16
2022-11-26T09:36:52.140Z,6.31
2022-11-26T09:39:19.859Z,6.38
2022-11-26T09:41:55.001Z,6.65
2022-11-26T09:44:29.268Z,6.54
2022-11-26T09:47:13.597Z,6.76
2022-11-26T09:49:54.266Z,6.87
2022-11-26T09:52:25.264Z,6.79
2022-11-26T09:55:00.818Z,6.81
2022-11-26T09:57:34.477Z,6.85
2022-11-26T10:00:04.869Z,6.83
2022-11-26T10:02:32.717Z,6.76
2022-11-26T10:05:02.133Z,6.82
2022-11-26T10:07:47.224Z,6.91
2022-11-26T10:10:22.464Z,7.03
2022-11-26T10:15:59.799Z,7.15
2022-11-26T10:18:37.831Z,7.20
2022-11-26T10:21:15.254Z,7.37
2022-11-26T10:23:47.364Z,7.44
2022-11-26T10:26:18.267Z,7.41
2022-11-26T10:28:48.450Z,7.43
2022-11-26T10:31:21.822Z,7.49
2022-11-26T10:33:55.665Z,7.65
2022-11-26T10:36:28.316Z,7.81
2022-11-26T10:38:57.225Z,7.95
2022-11-26T10:41:28.041Z,7.92
2022-11-26T10:43:55.749Z,7.93
2022-11-26T10:46:35.381Z,8.00
2022-11-26T10:49:24.813Z,8.15
2022-11-26T10:51:57.153Z,8.22
2022-11-26T10:54:28.869Z,8.00
2022-11-26T10:56:56.979Z,8.09
2022-11-26T10:59:29.521Z,8.19
2022-11-26T11:02:03.622Z,8.23
2022-11-26T11:04:35.885Z,8.28
2022-11-26T11:07:10.353Z,8.20
2022-11-26T11:09:39.664Z,8.11
2022-11-26T11:12:20.343Z,8.02
2022-11-26T11:14:49.305Z,7.96
2022-11-26T11:17:35.872Z,8.00
2022-11-26T11:20:29.425Z,8.04
2022-11-26T11:23:03.196Z,8.18
2022-11-26T11:25:32.643Z,8.18
2022-11-26T11:28:12.006Z,8.08
2022-11-26T11:30:43.075Z,8.18
2022-11-26T11:33:21.756Z,8.12
2022-11-26T11:36:05.583Z,8.18
2022-11-26T11:38:46.618Z,8.22
2022-11-26T11:41:23.203Z,8.24
2022-11-26T11:43:51.166Z,8.24
2022-11-26T11:46:38.261Z,8.18
2022-11-26T11:49:19.617Z,8.21
2022-11-26T11:52:01.984Z,8.18
2022-11-26T11:54:39.709Z,8.24
2022-11-26T11:57:18.178Z,8.30
2022-11-26T12:00:13.219Z,8.38
2022-11-26T12:02:56.124Z,8.13
2022-11-26T12:05:39.555Z,8.16
2022-11-26T12:08:16.465Z,8.24
2022-11-26T12:10:54.033Z,8.26
2022-11-26T12:13:26.334Z,8.30
2022-11-26T12:15:59.180Z,8.34
2022-11-26T12:18:34.534Z,8.40
2022-11-26T12:21:08.603Z,8.27
2022-11-26T12:23:41.945Z,8.27
2022-11-26T12:26:16.289Z,8.22
2022-11-26T12:28:53.652Z,8.20
2022-11-26T12:31:27.275Z,8.19
2022-11-26T12:34:05.572Z,8.17
2022-11-26T12:36:44.264Z,8.18
2022-11-26T12:39:19.169Z,8.13
2022-11-26T12:41:56.620Z,8.09
2022-11-26T12:44:31.937Z,8.11
2022-11-26T12:47:11.281Z,8.10
2022-11-26T12:49:46.275Z,8.11
2022-11-26T12:52:30.380Z,8.14
2022-11-26T12:55:05.233Z,8.12
2022-11-26T12:57:39.216Z,8.11
2022-11-26T13:00:12.858Z,8.07
2022-11-26T13:02:43.679Z,8.09
2022-11-26T13:05:18.197Z,8.11
2022-11-26T13:08:01.376Z,8.07
2022-11-26T13:10:38.168Z,8.07
2022-11-26T13:13:18.947Z,8.06
2022-11-26T13:15:54.630Z,8.06
2022-11-26T13:18:32.189Z,8.06
2022-11-26T13:21:19.318Z,8.08
2022-11-26T13:24:01.931Z,8.10
2022-11-26T13:26:52.870Z,8.10
2022-11-26T13:29:33.377Z,8.06
2022-11-26T13:32:25.994Z,8.04
2022-11-26T13:35:12.252Z,7.97
2022-11-26T13:37:51.340Z,8.02
2022-11-26T13:40:58.579Z,7.89
2022-11-26T13:43:55.602Z,7.95
2022-11-26T13:46:28.580Z,7.85
2022-11-26T13:49:01.583Z,7.89
2022-11-26T13:51:34.549Z,7.82
2022-11-26T13:54:11.064Z,7.83
2022-11-26T13:56:40.860Z,7.79
2022-11-26T13:59:16.132Z,7.81
2022-11-26T14:01:47.194Z,7.90
2022-11-26T14:04:16.466Z,7.86
2022-11-26T14:07:19.453Z,7.80
2022-11-26T14:09:49.702Z,7.69
2022-11-26T14:12:18.231Z,7.71
2022-11-26T14:14:47.818Z,7.67
2022-11-26T14:17:25.109Z,7.67
2022-11-26T14:20:00.825Z,7.67
2022-11-26T14:22:31.731Z,7.65
2022-11-26T14:25:03.689Z,7.61
2022-11-26T14:27:35.129Z,7.59
2022-11-26T14:30:17.525Z,7.52
2022-11-26T14:32:52.633Z,7.45
2022-11-26T14:35:29.197Z,7.48
2022-11-26T14:38:02.091Z,7.40
2022-11-26T14:40:31.207Z,7.37
2022-11-26T14:43:17.040Z,7.36
2022-11-26T14:45:47.758Z,7.37
2022-11-26T14:48:24.741Z,7.36
2022-11-26T14:50:53.885Z,7.35
2022-11-26T14:53:24.268Z,7.37
2022-11-26T14:55:52.834Z,7.34
2022-11-26T14:58:25.853Z,7.33
2022-11-26T15:01:17.897Z,7.25
2022-11-26T15:03:57.602Z,7.22
2022-11-26T15:06:27.925Z,7.21
2022-11-26T15:09:14.583Z,7.16
2022-11-26T15:11:46.949Z,7.16
2022-11-26T15:14:26.038Z,7.11
2022-11-26T15:16:57.656Z,7.06
2022-11-26T15:19:28.626Z,7.04
2022-11-26T15:21:56.342Z,7.03
2022-11-26T15:24:23.995Z,6.98
2022-11-26T15:26:51.680Z,6.90
2022-11-26T15:29:35.620Z,6.91
2022-11-26T15:32:05.131Z,6.96
2022-11-26T15:34:34.911Z,6.93
2022-11-26T15:37:02.728Z,6.94
2022-11-26T15:39:32.381Z,6.95
2022-11-26T15:42:05.661Z,6.98
2022-11-26T15:44:42.300Z,6.98
2022-11-26T15:47:19.892Z,6.95
2022-11-26T15:49:52.718Z,6.84
2022-11-26T15:52:25.182Z,6.84
2022-11-26T15:55:16.588Z,6.90
2022-11-26T15:57:45.005Z,6.87
2022-11-26T16:00:22.476Z,6.83
2022-11-26T16:02:52.078Z,6.87
2022-11-26T16:05:34.905Z,6.90
2022-11-26T16:08:04.864Z,6.89
2022-11-26T16:10:35.558Z,6.89
2022-11-26T16:13:10.147Z,6.94
2022-11-26T16:15:46.277Z,6.91
2022-11-26T16:18:18.179Z,6.93
2022-11-26T16:20:47.923Z,6.96
2022-11-26T16:23:25.162Z,6.97
2022-11-26T16:26:16.027Z,6.97
2022-11-26T16:28:44.518Z,6.99
2022-11-26T16:31:13.220Z,7.00
2022-11-26T16:33:41.233Z,6.91
2022-11-26T16:36:20.316Z,6.96
2022-11-26T16:38:48.991Z,6.96
2022-11-26T16:41:18.430Z,6.99
2022-11-26T16:43:46.128Z,7.01
2022-11-26T16:46:19.456Z,6.97
2022-11-26T16:48:48.712Z,6.91
2022-11-26T16:51:18.578Z,6.93
2022-11-26T16:53:46.676Z,6.96
2022-11-26T16:56:20.915Z,6.95
2022-11-26T16:58:49.463Z,6.99
2022-11-26T17:01:17.653Z,7.00
2022-11-26T17:03:45.571Z,7.00
2022-11-26T17:06:16.908Z,6.94
2022-11-26T17:08:49.815Z,6.95
2022-11-26T17:11:18.890Z,6.96
2022-11-26T17:13:46.595Z,6.96
2022-11-26T17:16:16.731Z,6.93
2022-11-26T17:18:44.887Z,6.93
2022-11-26T17:21:12.625Z,6.93
2022-11-26T17:23:40.586Z,6.92
2022-11-26T17:26:19.309Z,6.96
2022-11-26T17:28:47.451Z,6.98
2022-11-26T17:31:15.639Z,6.99
2022-11-26T17:33:43.417Z,6.95
2022-11-26T17:36:16.402Z,6.93
2022-11-26T17:38:44.808Z,6.82
2022-11-26T17:41:14.530Z,6.86
2022-11-26T17:43:42.351Z,6.95
2022-11-26T17:46:15.594Z,7.18
2022-11-26T17:48:43.348Z,7.03
2022-11-26T17:51:13.602Z,6.98
2022-11-26T17:53:41.961Z,6.98
2022-11-26T17:56:17.226Z,7.00
2022-11-26T17:58:45.042Z,7.02
2022-11-26T18:01:14.760Z,7.00
2022-11-26T18:03:42.966Z,7.00
2022-11-26T18:06:16.070Z,7.01
2022-11-26T18:08:44.014Z,6.96
2022-11-26T18:11:14.167Z,6.92
2022-11-26T18:13:41.796Z,6.91
2022-11-26T18:16:09.575Z,6.93
2022-11-26T18:18:37.334Z,6.91
2022-11-26T18:21:05.909Z,6.89
2022-11-26T18:23:34.084Z,6.93
2022-11-26T18:26:01.915Z,6.93
2022-11-26T18:28:31.049Z,6.93
2022-11-26T18:30:59.571Z,6.95
2022-11-26T18:33:27.568Z,6.90
2022-11-26T18:35:55.312Z,6.91
2022-11-26T18:38:25.035Z,6.87
2022-11-26T18:40:59.998Z,6.86
2022-11-26T18:43:27.669Z,6.88
2022-11-26T18:45:57.121Z,6.93
2022-11-26T18:48:25.273Z,6.93
2022-11-26T18:50:57.450Z,6.95
2022-11-26T18:53:25.438Z,6.95
2022-11-26T18:55:53.444Z,6.92
2022-11-26T18:58:21.603Z,6.92
2022-11-26T19:00:50.523Z,6.95
2022-11-26T19:03:19.673Z,6.89
2022-11-26T19:05:50.361Z,6.90
2022-11-26T19:08:18.620Z,6.94
2022-11-26T19:10:46.523Z,6.97
2022-11-26T19:13:14.571Z,6.97
2022-11-26T19:15:43.225Z,6.98
2022-11-26T19:18:12.801Z,6.98
2022-11-26T19:20:49.649Z,6.99
2022-11-26T19:23:17.417Z,6.93
2022-11-26T19:25:45.742Z,6.91
2022-11-26T19:28:13.573Z,6.91
2022-11-26T19:30:41.664Z,6.88
2022-11-26T19:33:09.819Z,6.85
2022-11-26T19:35:39.983Z,6.82
2022-11-26T19:38:09.260Z,6.81
2022-11-26T19:40:36.998Z,6.78
2022-11-26T19:43:04.622Z,6.71
2022-11-26T19:45:32.401Z,6.69
2022-11-26T19:48:00.348Z,6.64
2022-11-26T19:50:27.944Z,6.58
2022-11-26T19:52:56.045Z,6.56
2022-11-26T19:55:25.107Z,6.57
2022-11-26T19:57:52.818Z,6.61
2022-11-26T20:00:21.181Z,6.62
2022-11-26T20:02:48.992Z,6.59
2022-11-26T20:05:16.945Z,6.57
2022-11-26T20:07:45.232Z,6.51
2022-11-26T20:10:15.481Z,6.49
2022-11-26T20:12:44.547Z,6.46
2022-11-26T20:15:12.574Z,6.49
2022-11-26T20:17:40.183Z,6.48
2022-11-26T20:20:09.060Z,6.45
2022-11-26T20:22:37.484Z,6.34
2022-11-26T20:25:06.043Z,6.40
2022-11-26T20:27:33.800Z,6.43
2022-11-26T20:30:03.077Z,6.48
2022-11-26T20:32:30.794Z,6.49
2022-11-26T20:34:58.911Z,6.44
2022-11-26T20:37:26.724Z,6.48
2022-11-26T20:39:54.674Z,6.48
2022-11-26T20:42:22.652Z,6.53
2022-11-26T20:44:50.341Z,6.55
2022-11-26T20:47:19.461Z,6.56
2022-11-26T20:49:47.935Z,6.57
2022-11-26T20:52:16.235Z,6.56
2022-11-26T20:54:43.878Z,6.53
2022-11-26T20:57:11.608Z,6.53
2022-11-26T20:59:39.597Z,6.52
2022-11-26T21:02:07.965Z,6.48
2022-11-26T21:04:37.328Z,6.42
2022-11-26T21:07:05.281Z,6.42
2022-11-26T21:09:33.098Z,6.41
2022-11-26T21:12:01.072Z,6.42
2022-11-26T21:14:29.541Z,6.50
2022-11-26T21:16:57.403Z,6.53
2022-11-26T21:19:25.202Z,6.50
2022-11-26T21:21:54.378Z,6.51
2022-11-26T21:24:22.107Z,6.55
2022-11-26T21:26:49.764Z,6.56
2022-11-26T21:29:17.376Z,6.55
2022-11-26T21:31:45.074Z,6.52
2022-11-26T21:34:12.842Z,6.53
2022-11-26T21:36:42.422Z,6.55
2022-11-26T21:39:12.755Z,6.50
2022-11-26T21:41:40.532Z,6.43
2022-11-26T21:44:08.650Z,6.39
2022-11-26T21:46:38.821Z,6.34
2022-11-26T21:49:07.919Z,6.34
2022-11-26T21:51:35.726Z,6.30
2022-11-26T21:54:04.076Z,6.37
2022-11-26T21:56:33.601Z,6.40
2022-11-26T21:59:02.434Z,6.39
2022-11-26T22:01:32.335Z,6.43
2022-11-26T22:04:02.188Z,6.43
2022-11-26T22:06:30.525Z,6.42
2022-11-26T22:08:58.278Z,6.41
2022-11-26T22:11:29.468Z,6.46
2022-11-26T22:13:59.106Z,6.46
2022-11-26T22:16:28.632Z,6.42
2022-11-26T22:18:57.836Z,6.34
2022-11-26T22:21:27.221Z,6.25
2022-11-26T22:23:54.975Z,6.22
2022-11-26T22:26:23.301Z,6.19
2022-11-26T22:28:52.134Z,6.25
2022-11-26T22:31:24.078Z,6.22
2022-11-26T22:33:55.427Z,6.20
2022-11-26T22:36:23.340Z,6.18
2022-11-26T22:38:51.414Z,6.20
2022-11-26T22:41:19.173Z,6.23
2022-11-26T22:43:47.254Z,6.22
2022-11-26T22:46:17.131Z,6.21
2022-11-26T22:48:50.286Z,6.21
2022-11-26T22:51:18.228Z,6.23
2022-11-26T22:53:50.532Z,6.17
2022-11-26T22:56:19.094Z,6.14
2022-11-26T22:58:47.275Z,6.15
2022-11-26T23:01:19.894Z,6.14
2022-11-26T23:03:49.401Z,6.12
2022-11-26T23:06:18.565Z,6.09
2022-11-26T23:08:47.024Z,6.08
2022-11-26T23:11:17.531Z,6.02
2022-11-26T23:13:46.678Z,6.02
2022-11-26T23:16:15.070Z,6.06
2022-11-26T23:18:42.968Z,6.14
2022-11-26T23:21:14.925Z,6.17
2022-11-26T23:23:43.561Z,6.24
2022-11-26T23:26:14.120Z,6.26
2022-11-26T23:28:42.740Z,6.23
2022-11-26T23:31:14.274Z,6.17
2022-11-26T23:33:42.180Z,6.15
2022-11-26T23:36:12.422Z,6.19
2022-11-26T23:38:40.481Z,6.24
2022-11-26T23:41:08.555Z,6.25
2022-11-26T23:43:38.107Z,6.23
2022-11-26T23:46:08.210Z,6.19
2022-11-26T23:48:35.921Z,6.18
2022-11-26T23:51:08.125Z,6.13
2022-11-26T23:53:38.181Z,6.01
2022-11-26T23:56:08.132Z,5.86
2022-11-26T23:58:36.008Z,5.74
